KHPT/HPT METAR and TAF weather

Enter ICAO airport designator
Station Type Date Time Source
KHPT METAR 2021/04/13 07:15 UTC NOAA

KHPT 130715Z AUTO 29016G21KT 10SM OVC038 04/M01 A3004 RMK AO2


Station Type Date Time Source
KHPT Decoded METAR 2021/04/13 07:15 UTC NOAA

Station name not available
Apr 13, 2021 - 03:15 AM EDT / 2021.04.13 0715 UTC
Wind: from the WNW (290 degrees) at 18 MPH (16 KT) gusting to 24 MPH (21 KT):0
Visibility: 10 mile(s):0
Sky conditions: overcast
Temperature: 39 F (4 C)
Dew Point: 30 F (-1 C)
Relative Humidity: 69%
Pressure (altimeter): 30.04 in. Hg (1017 hPa)
ob: KHPT 130715Z AUTO 29016G21KT 10SM OVC038 04/M01 A3004 RMK AO2
cycle: 7

Station Type Date Time Source
KHPT TAF UTC NOAA

Error!

Example: see airport list